Keene, NY

7:27 PM EST on February 14, 2016 (GMT -0500)
Chickadee Hill | | Change Station
CLOSE
Current Station
Personal Weather Station
Location: Keene, NY
Elevation: 958 ft
Nearby Weather Stations

Elev 958 ft 44.25 °N, 73.80 °W | Updated 27 seconds ago

Clear
Clear
-1.3 °F
Feels Like -1 °F
N
0.0
Wind Variable Wind from ESE
Gusts 0.0 mph

Today
High -- | Low -- °F
--% Chance of Precip.
Yesterday
High -- | Low -- °F
Precip. -- in
Pressure 30.51 in
Visibility 10.0 miles
Clouds Clear
Windchill -1 °F
Dew Point -25 °F
Humidity 31%
Rainfall 0.00 in
Snow Depth Not available.
6:56 AM 5:22 PM
Waxing Crescent, 47% visible
METAR KSLK 142351Z AUTO 00000KT 10SM CLR M24/M29 A3031 RMK AO2 SLP330 T12441289 11189 21244 51011 $
Pressure 30.51 in
Visibility 10.0 miles
Clouds Clear
Windchill -1 °F
Dew Point -25 °F
Humidity 31%
Rainfall 0.00 in
Snow Depth Not available.
6:56 AM 5:22 PM
Waxing Crescent, 47% visible
METAR KSLK 142351Z AUTO 00000KT 10SM CLR M24/M29 A3031 RMK AO2 SLP330 T12441289 11189 21244 51011 $

10-Day Weather Forecast

Almanac

Astronomy

Feb. 14, 2016 Rise Set
Actual Time
Civil Twilight
Nautical Twilight
Astronomical Twilight
Moon
Length of Visible Light
Length of Day
Tomorrow will be .
, % of the Moon is Illuminated

Today's Extremes

State Highs State Lows

Community

WunderPhotos

Upload Photos

1,892,944 photos uploaded!

WunderBlog® & News

Nearby

Air Quality

  Air Quality AQ Index Pollutant
Not available.

Snow Depth

Station Depth Elevation

Earthquake Activity

City Distance Mag. Time & Date
Minimum magnitude displayed is 2.5.

Coastal Water Temperatures

Place Temperature

Stations

Nearby Weather Stations

Station Location Temp. Windchill Dew Point Humidity Wind Precip. Elev Updated Type
                   

Watches & Warnings

There are currently no watches in effect.